Time;durP1;ratioP1;P1;durP2;ratioP2;P2;SDS_P1;SDS_P2;PMS_P1;PMS_P2;Temp;Humidity;BMP_temperature;BMP_pressure;BME280_temperature;BME280_humidity;BME280_pressure;Samples;Min_cycle;Max_cycle;Signal;HPM_P1;HPM_P2
2023/09/13 00:10:57;;;;;;;22;18.4;;;;;;;16.84;88.78;;;;;
2023/09/13 00:20:57;;;;;;;22;18.4;;;;;;;16.81;89.6;;;;;
2023/09/13 00:30:57;;;;;;;22;18.4;;;;;;;16.78;89.58;;;;;
2023/09/13 00:41:57;;;;;;;29.7;19.9;;;;;;;16.72;90.47;;;;;
2023/09/13 00:51:57;;;;;;;29.7;19.9;;;;;;;16.57;89.9;;;;;
2023/09/13 01:01:57;;;;;;;29.7;19.9;;;;;;;16.54;90.34;;;;;
2023/09/13 01:12:57;;;;;;;22.4;18.9;;;;;;;16.59;90.57;;;;;
2023/09/13 01:23:57;;;;;;;22.4;18.9;;;;;;;16.53;90.16;;;;;
2023/09/13 01:34:57;;;;;;;22.4;18.9;;;;;;;16.5;90.74;;;;;
2023/09/13 01:44:57;;;;;;;26.8;22;;;;;;;16.42;90.19;;;;;
2023/09/13 01:54:57;;;;;;;26.8;22;;;;;;;16.36;90.74;;;;;
2023/09/13 02:05:57;;;;;;;26.8;22;;;;;;;16.3;90.78;;;;;
2023/09/13 02:15:57;;;;;;;26.8;22.7;;;;;;;16.25;90.73;;;;;
2023/09/13 02:26:57;;;;;;;26.8;22.7;;;;;;;16.21;91.14;;;;;
2023/09/13 02:37:57;;;;;;;26.8;22.7;;;;;;;16.17;91.37;;;;;
2023/09/13 02:47:57;;;;;;;27.8;21.8;;;;;;;16.12;91.27;;;;;
2023/09/13 02:57:57;;;;;;;27.8;21.8;;;;;;;16.16;91.58;;;;;
2023/09/13 03:07:59;;;;;;;27.8;21.8;;;;;;;16.19;91.56;;;;;
2023/09/13 03:17:57;;;;;;;25.9;22.6;;;;;;;16.18;91.33;;;;;
2023/09/13 03:28:57;;;;;;;25.9;22.6;;;;;;;16.11;91.13;;;;;
2023/09/13 03:38:57;;;;;;;25.9;22.6;;;;;;;16.05;90.99;;;;;
2023/09/13 03:49:58;;;;;;;21.9;18.9;;;;;;;15.93;90.96;;;;;
2023/09/13 04:00:58;;;;;;;21.9;18.9;;;;;;;15.87;90.5;;;;;
2023/09/13 04:10:58;;;;;;;21.3;16.9;;;;;;;15.71;90.58;;;;;
2023/09/13 04:21:57;;;;;;;21.3;16.9;;;;;;;15.65;90.51;;;;;
2023/09/13 04:31:58;;;;;;;21.3;16.9;;;;;;;15.61;90.46;;;;;
2023/09/13 04:42:58;;;;;;;24.5;21.3;;;;;;;15.56;90.26;;;;;
2023/09/13 04:53:57;;;;;;;24.5;21.3;;;;;;;15.61;90.63;;;;;
2023/09/13 05:03:58;;;;;;;24.5;21.3;;;;;;;15.8;90.75;;;;;
2023/09/13 05:13:58;;;;;;;24.7;19.9;;;;;;;16.01;91.39;;;;;
2023/09/13 05:23:58;;;;;;;24.7;19.9;;;;;;;16.36;91.55;;;;;
2023/09/13 05:34:58;;;;;;;24.7;19.9;;;;;;;16.89;92.04;;;;;
2023/09/13 05:44:58;;;;;;;22.3;19.4;;;;;;;17.3;91.08;;;;;
2023/09/13 05:55:58;;;;;;;22.3;19.4;;;;;;;17.83;90.76;;;;;
2023/09/13 06:05:58;;;;;;;22.3;19.4;;;;;;;18.35;89.65;;;;;
2023/09/13 06:16:58;;;;;;;26.7;20.6;;;;;;;18.75;88.66;;;;;
2023/09/13 06:27:58;;;;;;;26.7;20.6;;;;;;;19.33;86.65;;;;;
2023/09/13 06:37:57;;;;;;;26.7;20.6;;;;;;;19.53;83.69;;;;;
2023/09/13 06:47:58;;;;;;;23.7;20.7;;;;;;;20.23;83.71;;;;;
2023/09/13 06:58:58;;;;;;;23.7;20.7;;;;;;;20.77;82.58;;;;;
2023/09/13 07:09:58;;;;;;;23.7;20.7;;;;;;;21.17;79.28;;;;;
2023/09/13 07:20:58;;;;;;;23.3;18.4;;;;;;;21.69;78.41;;;;;
2023/09/13 07:30:58;;;;;;;23.3;18.4;;;;;;;22.17;75.71;;;;;
2023/09/13 07:40:58;;;;;;;;;;;;;;;;;;;;;
2023/09/13 07:51:58;;;;;;;19.1;12.2;;;;;;;23.18;74.23;;;;;
2023/09/13 08:02:58;;;;;;;19.1;12.2;;;;;;;23.62;69.81;;;;;
2023/09/13 08:13:58;;;;;;;19.1;12.2;;;;;;;23.92;67.38;;;;;
2023/09/13 08:23:58;;;;;;;13.6;9.5;;;;;;;24.4;67.96;;;;;
2023/09/13 08:34:58;;;;;;;13.6;9.5;;;;;;;24.54;65.27;;;;;
2023/09/13 08:45:58;;;;;;;13.6;9.5;;;;;;;24.89;65.54;;;;;
2023/09/13 08:55:58;;;;;;;21.8;8.7;;;;;;;25.09;63.54;;;;;
2023/09/13 09:05:58;;;;;;;21.8;8.7;;;;;;;25.3;62.19;;;;;
2023/09/13 09:16:58;;;;;;;21.8;8.7;;;;;;;25.85;62.72;;;;;
2023/09/13 09:26:58;;;;;;;;;;;;;;;;;;;;;
2023/09/13 09:36:58;;;;;;;14.3;8;;;;;;;26.52;56.86;;;;;
2023/09/13 09:47:58;;;;;;;14.3;8;;;;;;;26.86;57.02;;;;;
2023/09/13 09:58:58;;;;;;;13.8;7.7;;;;;;;27.11;54.8;;;;;
2023/09/13 10:08:58;;;;;;;13.8;7.7;;;;;;;27.35;54.94;;;;;
2023/09/13 10:19:58;;;;;;;13.8;7.7;;;;;;;27.75;55.06;;;;;
2023/09/13 10:29:59;;;;;;;11.9;8;;;;;;;27.78;54.05;;;;;
2023/09/13 10:39:58;;;;;;;11.9;8;;;;;;;28.07;53.82;;;;;
2023/09/13 10:50:58;;;;;;;16.2;9.6;;;;;;;28.13;54.36;;;;;
2023/09/13 11:00:58;;;;;;;16.2;9.6;;;;;;;28.45;53.42;;;;;
2023/09/13 11:11:58;;;;;;;16.2;9.6;;;;;;;28.64;52.4;;;;;
2023/09/13 11:22:58;;;;;;;12.3;8.3;;;;;;;28.76;51.35;;;;;
2023/09/13 11:33:58;;;;;;;12.3;8.3;;;;;;;28.98;49.86;;;;;
2023/09/13 11:43:58;;;;;;;12.3;8.3;;;;;;;28.93;49.63;;;;;
2023/09/13 11:54:58;;;;;;;16.4;8.2;;;;;;;29.11;51.9;;;;;
2023/09/13 12:05:58;;;;;;;16.4;8.2;;;;;;;29.26;49.07;;;;;
2023/09/13 12:15:58;;;;;;;16.4;8.2;;;;;;;29.37;49.48;;;;;
2023/09/13 12:25:58;;;;;;;12.9;8;;;;;;;29.28;48.13;;;;;
2023/09/13 12:36:58;;;;;;;12.9;8;;;;;;;29.4;48.46;;;;;
2023/09/13 12:46:58;;;;;;;12.9;8;;;;;;;29.43;49.41;;;;;
2023/09/13 12:57:58;;;;;;;10.4;7;;;;;;;29.63;47.44;;;;;
2023/09/13 13:08:58;;;;;;;10.4;7;;;;;;;29.68;46.11;;;;;
2023/09/13 13:19:58;;;;;;;10.4;7;;;;;;;29.48;45.65;;;;;
2023/09/13 13:30:58;;;;;;;12.8;8.3;;;;;;;28.93;47.21;;;;;
2023/09/13 13:40:58;;;;;;;12.8;8.3;;;;;;;29.18;45.63;;;;;
2023/09/13 13:51:58;;;;;;;12.8;7.6;;;;;;;29.41;46.75;;;;;
2023/09/13 14:01:58;;;;;;;12.8;7.6;;;;;;;29.64;46.34;;;;;
2023/09/13 14:11:58;;;;;;;12.8;7.6;;;;;;;29.6;45.14;;;;;
2023/09/13 14:22:58;;;;;;;9.2;6.7;;;;;;;29.51;45.91;;;;;
2023/09/13 14:33:59;;;;;;;9.2;6.7;;;;;;;29.45;48.74;;;;;
2023/09/13 14:43:58;;;;;;;9.2;6.7;;;;;;;29.78;45.39;;;;;
2023/09/13 14:53:58;;;;;;;13.2;8.2;;;;;;;29.83;45.09;;;;;
2023/09/13 15:04:58;;;;;;;13.2;8.2;;;;;;;29.52;47.03;;;;;
2023/09/13 15:15:58;;;;;;;13.2;8.2;;;;;;;31.41;43.59;;;;;
2023/09/13 15:25:58;;;;;;;17.6;8.2;;;;;;;33.31;45.98;;;;;
2023/09/13 15:35:58;;;;;;;17.6;8.2;;;;;;;33.9;43.79;;;;;
2023/09/13 15:45:58;;;;;;;17.6;8.2;;;;;;;32.93;47.19;;;;;
2023/09/13 15:56:58;;;;;;;11.2;8.3;;;;;;;31.12;49.49;;;;;
2023/09/13 16:06:58;;;;;;;11.2;8.3;;;;;;;29.29;53.55;;;;;
2023/09/13 16:17:58;;;;;;;11.2;8.3;;;;;;;27.71;57.68;;;;;
2023/09/13 16:27:58;;;;;;;22;10.2;;;;;;;26.66;60.83;;;;;
2023/09/13 16:37:58;;;;;;;22;10.2;;;;;;;25.65;64.89;;;;;
2023/09/13 16:47:59;;;;;;;22;10.2;;;;;;;24.94;65.26;;;;;
2023/09/13 16:58:58;;;;;;;22.2;12.9;;;;;;;24.41;67.13;;;;;
2023/09/13 17:08:58;;;;;;;22.2;12.9;;;;;;;23.99;67.87;;;;;
2023/09/13 17:19:58;;;;;;;22.2;12.9;;;;;;;23.58;70.26;;;;;
2023/09/13 17:30:58;;;;;;;25.9;16.8;;;;;;;23.33;74.29;;;;;
2023/09/13 17:40:58;;;;;;;25.9;16.8;;;;;;;23.02;74.07;;;;;
2023/09/13 17:51:58;;;;;;;22.3;16;;;;;;;23.02;73.65;;;;;
2023/09/13 18:01:58;;;;;;;22.3;16;;;;;;;23.05;73.1;;;;;
2023/09/13 18:11:58;;;;;;;22.3;16;;;;;;;23.1;72.43;;;;;
2023/09/13 18:22:58;;;;;;;22.1;17.3;;;;;;;23.09;70.97;;;;;
2023/09/13 18:32:58;;;;;;;22.1;17.3;;;;;;;22.93;71.35;;;;;
2023/09/13 18:43:59;;;;;;;22.1;17.3;;;;;;;22.57;73.13;;;;;
2023/09/13 18:54:00;;;;;;;18.5;15;;;;;;;22.29;73.17;;;;;
2023/09/13 19:03:58;;;;;;;18.5;15;;;;;;;21.95;74.1;;;;;
2023/09/13 19:14:58;;;;;;;18.5;15;;;;;;;21.66;75.29;;;;;
2023/09/13 19:25:58;;;;;;;24.4;17.7;;;;;;;21.52;74.79;;;;;
2023/09/13 19:36:58;;;;;;;24.4;17.7;;;;;;;21.53;75.14;;;;;
2023/09/13 19:47:02;;;;;;;24.4;17.7;;;;;;;21.63;75.57;;;;;
2023/09/13 19:57:00;;;;;;;21.8;17.9;;;;;;;21.65;75.86;;;;;
2023/09/13 20:07:58;;;;;;;21.8;17.9;;;;;;;21.67;75.38;;;;;
2023/09/13 20:18:58;;;;;;;21.8;17.9;;;;;;;21.66;75.01;;;;;
2023/09/13 20:28:58;;;;;;;22.3;17.2;;;;;;;21.76;74.61;;;;;
2023/09/13 20:39:58;;;;;;;22.3;17.2;;;;;;;21.73;75.2;;;;;
2023/09/13 20:49:58;;;;;;;22.3;17.2;;;;;;;21.68;75.23;;;;;
2023/09/13 21:00:58;;;;;;;22.1;18.5;;;;;;;21.57;74.93;;;;;
2023/09/13 21:11:58;;;;;;;22.1;18.5;;;;;;;21.46;74.19;;;;;
2023/09/13 21:22:58;;;;;;;20.6;15.2;;;;;;;21.36;74.75;;;;;
2023/09/13 21:32:58;;;;;;;20.6;15.2;;;;;;;21.23;75.44;;;;;
2023/09/13 21:43:58;;;;;;;20.6;15.2;;;;;;;21.12;76.42;;;;;
2023/09/13 21:53:58;;;;;;;13.1;10.4;;;;;;;20.98;77.68;;;;;
2023/09/13 22:03:58;;;;;;;13.1;10.4;;;;;;;20.89;78.26;;;;;
2023/09/13 22:14:58;;;;;;;13.1;10.4;;;;;;;20.76;78.51;;;;;
2023/09/13 22:25:58;;;;;;;15.1;10.9;;;;;;;20.58;79.87;;;;;
2023/09/13 22:35:58;;;;;;;15.1;10.9;;;;;;;20.52;79.44;;;;;
2023/09/13 22:45:58;;;;;;;15.1;10.9;;;;;;;20.48;80.33;;;;;
2023/09/13 22:55:58;;;;;;;14.3;8.7;;;;;;;20.43;80.58;;;;;
2023/09/13 23:05:58;;;;;;;14.3;8.7;;;;;;;20.36;81.21;;;;;
2023/09/13 23:16:58;;;;;;;14.3;8.7;;;;;;;20.31;81.64;;;;;
2023/09/13 23:26:58;;;;;;;13;9.4;;;;;;;20.17;81.59;;;;;
2023/09/13 23:37:59;;;;;;;13;9.4;;;;;;;20.08;81.47;;;;;
2023/09/13 23:47:58;;;;;;;13;9.4;;;;;;;19.96;81.95;;;;;
2023/09/13 23:58:58;;;;;;;12.3;8.3;;;;;;;19.86;81.95;;;;;
